Weather at Belleville Airport

Public forecast

Using degrees Celsius for public forecast. Weather courtesy of forecast.io.

Closest aviation weather report (METAR) to Belleville Airport

Closest report is CFB Trenton, 10.4 nm (19.3 km) WSW. Retrieved 2020/09/24 01:00 UTC (7 minutes ago):

CYTR 240100Z 27004KT 15SM SKC 17/09 A2990 RMK SLP125

Closest aviation forecast (TAF) to Belleville Airport

Closest forecast is CFB Trenton, 10.4 nm (19.3 km) WSW. Retrieved 2020-09-24 00:33 UTC (34 minutes ago):

TAF TAF CYTR 232330Z 2400/2424 28006KT P6SM FEW240 FM241000 VRB03KT P6SM FEW110 BECMG 2416/2418 20008KT RMK FCST BASED ON AUTO OBS 240200-241000Z NXT FCST BY 240600Z